sensor_id;sensor_type;location;lat;lon;timestamp;P1;durP1;ratioP1;P2;durP2;ratioP2
77010;SDS011;65945;53.148;17.956;2023-11-22T00:02:02;12.90;;;5.60;;
77010;SDS011;65945;53.148;17.956;2023-11-22T00:04:29;9.80;;;4.40;;
77010;SDS011;65945;53.148;17.956;2023-11-22T00:06:56;10.20;;;4.40;;
77010;SDS011;65945;53.148;17.956;2023-11-22T00:09:22;9.50;;;3.90;;
77010;SDS011;65945;53.148;17.956;2023-11-22T00:11:49;12.00;;;4.90;;
77010;SDS011;65945;53.148;17.956;2023-11-22T00:14:16;13.90;;;5.80;;
77010;SDS011;65945;53.148;17.956;2023-11-22T00:16:42;12.50;;;5.70;;
77010;SDS011;65945;53.148;17.956;2023-11-22T00:19:09;11.20;;;5.50;;
77010;SDS011;65945;53.148;17.956;2023-11-22T00:21:35;13.70;;;6.10;;
77010;SDS011;65945;53.148;17.956;2023-11-22T00:24:02;13.90;;;5.50;;
77010;SDS011;65945;53.148;17.956;2023-11-22T00:26:29;11.20;;;5.30;;
77010;SDS011;65945;53.148;17.956;2023-11-22T00:28:57;14.20;;;5.00;;
77010;SDS011;65945;53.148;17.956;2023-11-22T00:31:23;9.50;;;4.00;;
77010;SDS011;65945;53.148;17.956;2023-11-22T00:33:50;9.90;;;4.70;;
77010;SDS011;65945;53.148;17.956;2023-11-22T00:36:17;12.70;;;5.10;;
77010;SDS011;65945;53.148;17.956;2023-11-22T00:38:44;13.90;;;5.60;;
77010;SDS011;65945;53.148;17.956;2023-11-22T00:41:11;13.80;;;6.40;;
77010;SDS011;65945;53.148;17.956;2023-11-22T00:43:38;11.80;;;6.10;;
77010;SDS011;65945;53.148;17.956;2023-11-22T00:46:05;16.00;;;6.20;;
77010;SDS011;65945;53.148;17.956;2023-11-22T00:48:32;12.80;;;6.20;;
77010;SDS011;65945;53.148;17.956;2023-11-22T00:50:59;13.10;;;5.80;;
77010;SDS011;65945;53.148;17.956;2023-11-22T00:53:25;7.50;;;3.80;;
77010;SDS011;65945;53.148;17.956;2023-11-22T00:55:52;10.70;;;5.00;;
77010;SDS011;65945;53.148;17.956;2023-11-22T00:58:19;15.60;;;6.50;;
77010;SDS011;65945;53.148;17.956;2023-11-22T01:00:45;15.30;;;7.00;;
77010;SDS011;65945;53.148;17.956;2023-11-22T01:03:12;9.90;;;4.60;;
77010;SDS011;65945;53.148;17.956;2023-11-22T01:05:39;18.10;;;6.80;;
77010;SDS011;65945;53.148;17.956;2023-11-22T01:08:05;12.10;;;5.30;;
77010;SDS011;65945;53.148;17.956;2023-11-22T01:10:32;14.40;;;6.40;;
77010;SDS011;65945;53.148;17.956;2023-11-22T01:12:58;18.90;;;7.40;;
77010;SDS011;65945;53.148;17.956;2023-11-22T01:15:25;18.80;;;7.60;;
77010;SDS011;65945;53.148;17.956;2023-11-22T01:17:51;16.60;;;6.80;;
77010;SDS011;65945;53.148;17.956;2023-11-22T01:20:18;16.10;;;6.30;;
77010;SDS011;65945;53.148;17.956;2023-11-22T01:22:45;18.10;;;8.10;;
77010;SDS011;65945;53.148;17.956;2023-11-22T01:25:11;18.40;;;7.10;;
77010;SDS011;65945;53.148;17.956;2023-11-22T01:27:38;20.70;;;7.80;;
77010;SDS011;65945;53.148;17.956;2023-11-22T01:30:05;20.50;;;8.90;;
77010;SDS011;65945;53.148;17.956;2023-11-22T01:32:33;18.60;;;7.30;;
77010;SDS011;65945;53.148;17.956;2023-11-22T01:35:03;18.20;;;8.00;;
77010;SDS011;65945;53.148;17.956;2023-11-22T01:37:32;19.90;;;7.90;;
77010;SDS011;65945;53.148;17.956;2023-11-22T01:39:58;18.20;;;8.10;;
77010;SDS011;65945;53.148;17.956;2023-11-22T01:42:25;17.00;;;7.20;;
77010;SDS011;65945;53.148;17.956;2023-11-22T01:44:51;16.60;;;7.10;;
77010;SDS011;65945;53.148;17.956;2023-11-22T01:47:19;16.60;;;7.70;;
77010;SDS011;65945;53.148;17.956;2023-11-22T01:49:46;16.60;;;8.10;;
77010;SDS011;65945;53.148;17.956;2023-11-22T01:52:13;13.60;;;7.30;;
77010;SDS011;65945;53.148;17.956;2023-11-22T01:54:40;14.50;;;6.80;;
77010;SDS011;65945;53.148;17.956;2023-11-22T01:57:09;15.60;;;6.70;;
77010;SDS011;65945;53.148;17.956;2023-11-22T01:59:36;20.20;;;7.00;;
77010;SDS011;65945;53.148;17.956;2023-11-22T02:02:04;16.10;;;6.70;;
77010;SDS011;65945;53.148;17.956;2023-11-22T02:04:30;16.70;;;6.60;;
77010;SDS011;65945;53.148;17.956;2023-11-22T02:06:57;14.20;;;6.60;;
77010;SDS011;65945;53.148;17.956;2023-11-22T02:09:23;14.80;;;6.60;;
77010;SDS011;65945;53.148;17.956;2023-11-22T02:11:51;15.50;;;7.40;;
77010;SDS011;65945;53.148;17.956;2023-11-22T02:14:18;20.70;;;6.80;;
77010;SDS011;65945;53.148;17.956;2023-11-22T02:16:45;16.10;;;6.90;;
77010;SDS011;65945;53.148;17.956;2023-11-22T02:19:14;12.40;;;6.10;;
77010;SDS011;65945;53.148;17.956;2023-11-22T02:21:43;14.60;;;6.70;;
77010;SDS011;65945;53.148;17.956;2023-11-22T02:24:10;17.20;;;6.90;;
77010;SDS011;65945;53.148;17.956;2023-11-22T02:26:37;13.70;;;6.40;;
77010;SDS011;65945;53.148;17.956;2023-11-22T02:29:05;13.50;;;6.50;;
77010;SDS011;65945;53.148;17.956;2023-11-22T02:31:32;17.30;;;7.00;;
77010;SDS011;65945;53.148;17.956;2023-11-22T02:34:00;15.90;;;6.90;;
77010;SDS011;65945;53.148;17.956;2023-11-22T02:36:27;17.20;;;6.70;;
77010;SDS011;65945;53.148;17.956;2023-11-22T02:38:53;11.50;;;5.90;;
77010;SDS011;65945;53.148;17.956;2023-11-22T02:41:21;12.60;;;6.00;;
77010;SDS011;65945;53.148;17.956;2023-11-22T02:43:48;14.60;;;6.60;;
77010;SDS011;65945;53.148;17.956;2023-11-22T02:46:15;13.70;;;6.40;;
77010;SDS011;65945;53.148;17.956;2023-11-22T02:48:41;15.90;;;6.80;;
77010;SDS011;65945;53.148;17.956;2023-11-22T02:51:08;16.10;;;7.30;;
77010;SDS011;65945;53.148;17.956;2023-11-22T02:53:34;14.00;;;7.00;;
77010;SDS011;65945;53.148;17.956;2023-11-22T02:56:01;17.60;;;7.60;;
77010;SDS011;65945;53.148;17.956;2023-11-22T02:58:28;15.20;;;6.70;;
77010;SDS011;65945;53.148;17.956;2023-11-22T03:00:56;14.10;;;6.90;;
77010;SDS011;65945;53.148;17.956;2023-11-22T03:03:23;13.80;;;6.40;;
77010;SDS011;65945;53.148;17.956;2023-11-22T03:05:50;13.30;;;6.20;;
77010;SDS011;65945;53.148;17.956;2023-11-22T03:08:16;12.40;;;6.20;;
77010;SDS011;65945;53.148;17.956;2023-11-22T03:10:43;15.60;;;6.70;;
77010;SDS011;65945;53.148;17.956;2023-11-22T03:13:10;14.90;;;6.70;;
77010;SDS011;65945;53.148;17.956;2023-11-22T03:15:36;16.50;;;7.50;;
77010;SDS011;65945;53.148;17.956;2023-11-22T03:18:04;15.10;;;6.30;;
77010;SDS011;65945;53.148;17.956;2023-11-22T03:20:32;14.20;;;7.00;;
77010;SDS011;65945;53.148;17.956;2023-11-22T03:22:59;15.30;;;7.10;;
77010;SDS011;65945;53.148;17.956;2023-11-22T03:25:28;17.70;;;7.40;;
77010;SDS011;65945;53.148;17.956;2023-11-22T03:27:55;15.60;;;7.30;;
77010;SDS011;65945;53.148;17.956;2023-11-22T03:30:22;18.20;;;7.70;;
77010;SDS011;65945;53.148;17.956;2023-11-22T03:32:49;16.70;;;7.70;;
77010;SDS011;65945;53.148;17.956;2023-11-22T03:35:18;14.90;;;7.10;;
77010;SDS011;65945;53.148;17.956;2023-11-22T03:37:44;17.30;;;6.90;;
77010;SDS011;65945;53.148;17.956;2023-11-22T03:40:11;17.60;;;7.50;;
77010;SDS011;65945;53.148;17.956;2023-11-22T03:42:40;14.40;;;7.70;;
77010;SDS011;65945;53.148;17.956;2023-11-22T03:45:07;16.20;;;7.90;;
77010;SDS011;65945;53.148;17.956;2023-11-22T03:47:34;25.20;;;8.90;;
77010;SDS011;65945;53.148;17.956;2023-11-22T03:50:05;34.70;;;10.10;;
77010;SDS011;65945;53.148;17.956;2023-11-22T03:52:32;73.30;;;15.10;;
77010;SDS011;65945;53.148;17.956;2023-11-22T03:54:58;73.80;;;15.10;;
77010;SDS011;65945;53.148;17.956;2023-11-22T03:57:25;58.60;;;14.60;;
77010;SDS011;65945;53.148;17.956;2023-11-22T03:59:52;20.80;;;8.30;;
77010;SDS011;65945;53.148;17.956;2023-11-22T04:02:18;15.90;;;7.60;;
77010;SDS011;65945;53.148;17.956;2023-11-22T04:04:45;19.90;;;8.10;;
77010;SDS011;65945;53.148;17.956;2023-11-22T04:07:11;24.20;;;8.60;;
77010;SDS011;65945;53.148;17.956;2023-11-22T04:09:38;17.90;;;8.20;;
77010;SDS011;65945;53.148;17.956;2023-11-22T04:12:05;15.60;;;8.00;;
77010;SDS011;65945;53.148;17.956;2023-11-22T04:14:31;19.10;;;7.90;;
77010;SDS011;65945;53.148;17.956;2023-11-22T04:16:58;16.80;;;7.20;;
77010;SDS011;65945;53.148;17.956;2023-11-22T04:19:25;18.30;;;7.30;;
77010;SDS011;65945;53.148;17.956;2023-11-22T04:21:51;13.70;;;6.70;;
77010;SDS011;65945;53.148;17.956;2023-11-22T04:24:18;16.20;;;6.90;;
77010;SDS011;65945;53.148;17.956;2023-11-22T04:26:45;14.30;;;6.90;;
77010;SDS011;65945;53.148;17.956;2023-11-22T04:29:11;14.50;;;6.50;;
77010;SDS011;65945;53.148;17.956;2023-11-22T04:31:38;17.60;;;6.60;;
77010;SDS011;65945;53.148;17.956;2023-11-22T04:34:04;15.20;;;6.80;;
77010;SDS011;65945;53.148;17.956;2023-11-22T04:36:32;15.80;;;7.30;;
77010;SDS011;65945;53.148;17.956;2023-11-22T04:38:58;15.90;;;7.30;;
77010;SDS011;65945;53.148;17.956;2023-11-22T04:41:25;17.50;;;7.50;;
77010;SDS011;65945;53.148;17.956;2023-11-22T04:43:52;22.30;;;7.70;;
77010;SDS011;65945;53.148;17.956;2023-11-22T04:46:19;14.60;;;7.10;;
77010;SDS011;65945;53.148;17.956;2023-11-22T04:48:46;14.90;;;6.90;;
77010;SDS011;65945;53.148;17.956;2023-11-22T04:51:17;16.60;;;6.80;;
77010;SDS011;65945;53.148;17.956;2023-11-22T04:53:44;15.30;;;6.70;;
77010;SDS011;65945;53.148;17.956;2023-11-22T04:56:10;15.30;;;7.00;;
77010;SDS011;65945;53.148;17.956;2023-11-22T04:58:37;13.90;;;7.30;;
77010;SDS011;65945;53.148;17.956;2023-11-22T05:01:04;18.80;;;7.50;;
77010;SDS011;65945;53.148;17.956;2023-11-22T05:03:30;18.60;;;7.60;;
77010;SDS011;65945;53.148;17.956;2023-11-22T05:05:57;14.40;;;6.90;;
77010;SDS011;65945;53.148;17.956;2023-11-22T05:08:24;14.70;;;6.50;;
77010;SDS011;65945;53.148;17.956;2023-11-22T05:10:51;15.60;;;7.10;;
77010;SDS011;65945;53.148;17.956;2023-11-22T05:13:18;16.30;;;8.10;;
77010;SDS011;65945;53.148;17.956;2023-11-22T05:15:44;12.90;;;6.60;;
77010;SDS011;65945;53.148;17.956;2023-11-22T05:18:11;13.40;;;8.00;;
77010;SDS011;65945;53.148;17.956;2023-11-22T05:20:38;14.40;;;7.10;;
77010;SDS011;65945;53.148;17.956;2023-11-22T05:23:04;16.40;;;7.80;;
77010;SDS011;65945;53.148;17.956;2023-11-22T05:25:31;18.80;;;8.20;;
77010;SDS011;65945;53.148;17.956;2023-11-22T05:27:58;16.30;;;7.70;;
77010;SDS011;65945;53.148;17.956;2023-11-22T05:30:25;15.10;;;7.30;;
77010;SDS011;65945;53.148;17.956;2023-11-22T05:32:52;15.40;;;7.60;;
77010;SDS011;65945;53.148;17.956;2023-11-22T05:35:18;17.80;;;7.60;;
77010;SDS011;65945;53.148;17.956;2023-11-22T05:37:46;15.80;;;7.70;;
77010;SDS011;65945;53.148;17.956;2023-11-22T05:40:12;15.80;;;7.40;;
77010;SDS011;65945;53.148;17.956;2023-11-22T05:42:39;20.80;;;8.20;;
77010;SDS011;65945;53.148;17.956;2023-11-22T05:45:06;17.80;;;7.90;;
77010;SDS011;65945;53.148;17.956;2023-11-22T05:47:35;16.50;;;8.70;;
77010;SDS011;65945;53.148;17.956;2023-11-22T05:50:01;18.70;;;8.20;;
77010;SDS011;65945;53.148;17.956;2023-11-22T05:52:28;19.90;;;8.40;;
77010;SDS011;65945;53.148;17.956;2023-11-22T05:54:55;17.80;;;8.10;;
77010;SDS011;65945;53.148;17.956;2023-11-22T05:57:22;27.60;;;9.80;;
77010;SDS011;65945;53.148;17.956;2023-11-22T05:59:49;29.20;;;11.90;;
77010;SDS011;65945;53.148;17.956;2023-11-22T06:02:15;29.50;;;13.50;;
77010;SDS011;65945;53.148;17.956;2023-11-22T06:04:42;31.10;;;14.30;;
77010;SDS011;65945;53.148;17.956;2023-11-22T06:07:09;31.10;;;14.90;;
77010;SDS011;65945;53.148;17.956;2023-11-22T06:09:36;38.10;;;17.40;;
77010;SDS011;65945;53.148;17.956;2023-11-22T06:12:03;37.40;;;15.90;;
77010;SDS011;65945;53.148;17.956;2023-11-22T06:14:29;42.60;;;18.70;;
77010;SDS011;65945;53.148;17.956;2023-11-22T06:16:56;51.70;;;21.80;;
77010;SDS011;65945;53.148;17.956;2023-11-22T06:19:23;36.70;;;18.90;;
77010;SDS011;65945;53.148;17.956;2023-11-22T06:21:50;42.40;;;18.30;;
77010;SDS011;65945;53.148;17.956;2023-11-22T06:24:16;42.00;;;16.40;;
77010;SDS011;65945;53.148;17.956;2023-11-22T06:26:43;38.10;;;17.00;;
77010;SDS011;65945;53.148;17.956;2023-11-22T06:29:12;32.70;;;16.70;;
77010;SDS011;65945;53.148;17.956;2023-11-22T06:31:39;36.80;;;18.40;;
77010;SDS011;65945;53.148;17.956;2023-11-22T06:34:06;41.20;;;17.60;;
77010;SDS011;65945;53.148;17.956;2023-11-22T06:36:33;35.20;;;17.20;;
77010;SDS011;65945;53.148;17.956;2023-11-22T06:39:00;44.00;;;21.10;;
77010;SDS011;65945;53.148;17.956;2023-11-22T06:41:27;43.00;;;20.90;;
77010;SDS011;65945;53.148;17.956;2023-11-22T06:43:55;39.80;;;21.50;;
77010;SDS011;65945;53.148;17.956;2023-11-22T06:46:21;49.30;;;21.20;;
77010;SDS011;65945;53.148;17.956;2023-11-22T06:48:49;41.30;;;19.20;;
77010;SDS011;65945;53.148;17.956;2023-11-22T06:51:16;29.90;;;15.50;;
77010;SDS011;65945;53.148;17.956;2023-11-22T06:53:44;29.00;;;13.00;;
77010;SDS011;65945;53.148;17.956;2023-11-22T06:56:12;33.00;;;14.40;;
77010;SDS011;65945;53.148;17.956;2023-11-22T06:58:39;29.40;;;12.10;;
77010;SDS011;65945;53.148;17.956;2023-11-22T07:01:05;25.60;;;10.90;;
77010;SDS011;65945;53.148;17.956;2023-11-22T07:03:33;27.20;;;11.30;;
77010;SDS011;65945;53.148;17.956;2023-11-22T07:06:00;30.10;;;14.30;;
77010;SDS011;65945;53.148;17.956;2023-11-22T07:08:26;32.00;;;14.90;;
77010;SDS011;65945;53.148;17.956;2023-11-22T07:10:54;25.80;;;12.00;;
77010;SDS011;65945;53.148;17.956;2023-11-22T07:13:23;25.20;;;11.40;;
77010;SDS011;65945;53.148;17.956;2023-11-22T07:15:50;27.00;;;11.60;;
77010;SDS011;65945;53.148;17.956;2023-11-22T07:18:18;22.60;;;10.10;;
77010;SDS011;65945;53.148;17.956;2023-11-22T07:20:44;21.10;;;10.00;;
77010;SDS011;65945;53.148;17.956;2023-11-22T07:23:11;23.80;;;11.40;;
77010;SDS011;65945;53.148;17.956;2023-11-22T07:25:40;24.10;;;10.50;;
77010;SDS011;65945;53.148;17.956;2023-11-22T07:28:07;25.30;;;11.00;;
77010;SDS011;65945;53.148;17.956;2023-11-22T07:30:35;24.10;;;11.30;;
77010;SDS011;65945;53.148;17.956;2023-11-22T07:33:04;29.00;;;13.60;;
77010;SDS011;65945;53.148;17.956;2023-11-22T07:35:32;38.50;;;14.70;;
77010;SDS011;65945;53.148;17.956;2023-11-22T07:37:59;30.60;;;13.30;;
77010;SDS011;65945;53.148;17.956;2023-11-22T07:40:26;32.20;;;14.30;;
77010;SDS011;65945;53.148;17.956;2023-11-22T07:42:53;46.10;;;16.40;;
77010;SDS011;65945;53.148;17.956;2023-11-22T07:45:20;35.50;;;15.50;;
77010;SDS011;65945;53.148;17.956;2023-11-22T07:47:48;38.20;;;15.60;;
77010;SDS011;65945;53.148;17.956;2023-11-22T07:50:15;42.20;;;17.70;;
77010;SDS011;65945;53.148;17.956;2023-11-22T07:52:41;47.30;;;19.70;;
77010;SDS011;65945;53.148;17.956;2023-11-22T07:55:08;70.60;;;28.90;;
77010;SDS011;65945;53.148;17.956;2023-11-22T07:57:37;74.20;;;29.00;;
77010;SDS011;65945;53.148;17.956;2023-11-22T08:00:05;67.80;;;26.90;;
77010;SDS011;65945;53.148;17.956;2023-11-22T08:02:42;66.80;;;28.50;;
77010;SDS011;65945;53.148;17.956;2023-11-22T08:05:09;71.80;;;30.10;;
77010;SDS011;65945;53.148;17.956;2023-11-22T08:07:36;70.30;;;31.80;;
77010;SDS011;65945;53.148;17.956;2023-11-22T08:10:07;85.40;;;33.00;;
77010;SDS011;65945;53.148;17.956;2023-11-22T08:12:48;76.40;;;30.70;;
77010;SDS011;65945;53.148;17.956;2023-11-22T08:15:16;69.80;;;29.90;;
77010;SDS011;65945;53.148;17.956;2023-11-22T08:17:46;64.20;;;27.40;;
77010;SDS011;65945;53.148;17.956;2023-11-22T08:20:12;63.30;;;25.60;;
77010;SDS011;65945;53.148;17.956;2023-11-22T08:22:46;56.00;;;25.30;;
77010;SDS011;65945;53.148;17.956;2023-11-22T08:25:15;51.90;;;25.30;;
77010;SDS011;65945;53.148;17.956;2023-11-22T08:27:42;65.70;;;25.60;;
77010;SDS011;65945;53.148;17.956;2023-11-22T08:30:09;57.80;;;26.80;;
77010;SDS011;65945;53.148;17.956;2023-11-22T08:32:40;65.90;;;26.70;;
77010;SDS011;65945;53.148;17.956;2023-11-22T08:35:10;57.00;;;25.50;;
77010;SDS011;65945;53.148;17.956;2023-11-22T08:37:38;61.70;;;26.80;;
77010;SDS011;65945;53.148;17.956;2023-11-22T08:40:08;71.20;;;28.40;;
77010;SDS011;65945;53.148;17.956;2023-11-22T08:42:38;58.00;;;26.00;;
77010;SDS011;65945;53.148;17.956;2023-11-22T08:45:05;53.20;;;24.00;;
77010;SDS011;65945;53.148;17.956;2023-11-22T08:47:31;41.20;;;19.00;;
77010;SDS011;65945;53.148;17.956;2023-11-22T08:49:58;33.60;;;16.80;;
77010;SDS011;65945;53.148;17.956;2023-11-22T08:52:25;33.90;;;16.00;;
77010;SDS011;65945;53.148;17.956;2023-11-22T08:54:52;37.70;;;19.50;;
77010;SDS011;65945;53.148;17.956;2023-11-22T08:57:19;48.30;;;21.50;;
77010;SDS011;65945;53.148;17.956;2023-11-22T08:59:46;53.20;;;23.80;;
77010;SDS011;65945;53.148;17.956;2023-11-22T09:02:14;55.40;;;25.60;;
77010;SDS011;65945;53.148;17.956;2023-11-22T09:04:41;106.00;;;32.00;;
77010;SDS011;65945;53.148;17.956;2023-11-22T09:07:08;70.70;;;26.10;;
77010;SDS011;65945;53.148;17.956;2023-11-22T09:09:36;48.70;;;20.20;;
77010;SDS011;65945;53.148;17.956;2023-11-22T09:12:03;56.90;;;23.40;;
77010;SDS011;65945;53.148;17.956;2023-11-22T09:14:31;57.30;;;23.40;;
77010;SDS011;65945;53.148;17.956;2023-11-22T09:16:57;71.70;;;26.30;;
77010;SDS011;65945;53.148;17.956;2023-11-22T09:19:24;70.90;;;23.60;;
77010;SDS011;65945;53.148;17.956;2023-11-22T09:21:54;38.10;;;16.20;;
77010;SDS011;65945;53.148;17.956;2023-11-22T09:24:21;41.60;;;16.20;;
77010;SDS011;65945;53.148;17.956;2023-11-22T09:26:47;90.10;;;35.30;;
77010;SDS011;65945;53.148;17.956;2023-11-22T09:29:14;78.80;;;31.20;;
77010;SDS011;65945;53.148;17.956;2023-11-22T09:31:41;33.30;;;16.40;;
77010;SDS011;65945;53.148;17.956;2023-11-22T09:34:12;26.70;;;13.90;;
77010;SDS011;65945;53.148;17.956;2023-11-22T09:36:39;28.80;;;13.10;;
77010;SDS011;65945;53.148;17.956;2023-11-22T09:39:06;33.80;;;15.90;;
77010;SDS011;65945;53.148;17.956;2023-11-22T09:41:35;28.00;;;13.90;;
77010;SDS011;65945;53.148;17.956;2023-11-22T09:44:04;30.00;;;15.50;;
77010;SDS011;65945;53.148;17.956;2023-11-22T09:46:31;29.60;;;14.80;;
77010;SDS011;65945;53.148;17.956;2023-11-22T09:49:00;28.90;;;14.20;;
77010;SDS011;65945;53.148;17.956;2023-11-22T09:51:34;35.30;;;16.20;;
77010;SDS011;65945;53.148;17.956;2023-11-22T09:54:06;31.70;;;14.30;;
77010;SDS011;65945;53.148;17.956;2023-11-22T09:56:35;32.20;;;14.30;;
77010;SDS011;65945;53.148;17.956;2023-11-22T09:59:03;28.30;;;14.00;;
77010;SDS011;65945;53.148;17.956;2023-11-22T10:01:30;33.90;;;15.40;;
77010;SDS011;65945;53.148;17.956;2023-11-22T10:03:59;32.50;;;15.70;;
77010;SDS011;65945;53.148;17.956;2023-11-22T10:06:26;36.30;;;14.90;;
77010;SDS011;65945;53.148;17.956;2023-11-22T10:08:56;41.60;;;16.90;;
77010;SDS011;65945;53.148;17.956;2023-11-22T10:11:23;40.20;;;16.20;;
77010;SDS011;65945;53.148;17.956;2023-11-22T10:13:50;28.90;;;13.70;;
77010;SDS011;65945;53.148;17.956;2023-11-22T10:16:17;25.80;;;11.80;;
77010;SDS011;65945;53.148;17.956;2023-11-22T10:18:46;21.60;;;10.40;;
77010;SDS011;65945;53.148;17.956;2023-11-22T10:21:18;24.30;;;11.70;;
77010;SDS011;65945;53.148;17.956;2023-11-22T10:23:45;21.60;;;10.90;;
77010;SDS011;65945;53.148;17.956;2023-11-22T10:26:13;24.60;;;12.30;;
77010;SDS011;65945;53.148;17.956;2023-11-22T10:28:42;30.90;;;13.80;;
77010;SDS011;65945;53.148;17.956;2023-11-22T10:31:10;23.70;;;11.40;;
77010;SDS011;65945;53.148;17.956;2023-11-22T10:33:40;23.90;;;11.80;;
77010;SDS011;65945;53.148;17.956;2023-11-22T10:36:10;27.10;;;12.80;;
77010;SDS011;65945;53.148;17.956;2023-11-22T10:38:38;26.90;;;12.70;;
77010;SDS011;65945;53.148;17.956;2023-11-22T10:41:05;26.60;;;11.60;;
77010;SDS011;65945;53.148;17.956;2023-11-22T10:43:34;25.90;;;12.50;;
77010;SDS011;65945;53.148;17.956;2023-11-22T10:46:05;26.30;;;12.50;;
77010;SDS011;65945;53.148;17.956;2023-11-22T10:48:32;34.30;;;15.30;;
77010;SDS011;65945;53.148;17.956;2023-11-22T10:51:00;35.20;;;14.10;;
77010;SDS011;65945;53.148;17.956;2023-11-22T10:56:08;24.20;;;12.20;;
77010;SDS011;65945;53.148;17.956;2023-11-22T10:58:59;27.60;;;12.60;;
77010;SDS011;65945;53.148;17.956;2023-11-22T11:01:28;22.10;;;11.40;;
77010;SDS011;65945;53.148;17.956;2023-11-22T11:03:58;24.00;;;11.60;;
77010;SDS011;65945;53.148;17.956;2023-11-22T11:06:33;25.40;;;13.00;;
77010;SDS011;65945;53.148;17.956;2023-11-22T11:09:03;31.20;;;13.10;;
77010;SDS011;65945;53.148;17.956;2023-11-22T11:11:35;21.80;;;10.90;;
77010;SDS011;65945;53.148;17.956;2023-11-22T11:14:03;21.80;;;10.00;;
77010;SDS011;65945;53.148;17.956;2023-11-22T11:16:32;18.40;;;9.80;;
77010;SDS011;65945;53.148;17.956;2023-11-22T11:19:04;15.90;;;7.80;;
77010;SDS011;65945;53.148;17.956;2023-11-22T11:21:34;22.30;;;9.10;;
77010;SDS011;65945;53.148;17.956;2023-11-22T11:24:00;21.20;;;10.60;;
77010;SDS011;65945;53.148;17.956;2023-11-22T11:26:31;21.30;;;10.40;;
77010;SDS011;65945;53.148;17.956;2023-11-22T11:29:01;23.00;;;9.90;;
77010;SDS011;65945;53.148;17.956;2023-11-22T11:31:33;15.40;;;8.70;;
77010;SDS011;65945;53.148;17.956;2023-11-22T11:34:06;26.40;;;11.60;;
77010;SDS011;65945;53.148;17.956;2023-11-22T11:36:32;23.00;;;10.30;;
77010;SDS011;65945;53.148;17.956;2023-11-22T11:39:01;28.00;;;11.20;;
77010;SDS011;65945;53.148;17.956;2023-11-22T11:41:32;20.90;;;10.20;;
77010;SDS011;65945;53.148;17.956;2023-11-22T11:44:01;21.50;;;9.40;;
77010;SDS011;65945;53.148;17.956;2023-11-22T11:46:29;20.70;;;9.90;;
77010;SDS011;65945;53.148;17.956;2023-11-22T11:48:57;25.60;;;11.70;;
77010;SDS011;65945;53.148;17.956;2023-11-22T11:51:24;25.20;;;11.10;;
77010;SDS011;65945;53.148;17.956;2023-11-22T11:53:55;21.90;;;9.90;;
77010;SDS011;65945;53.148;17.956;2023-11-22T11:56:22;19.80;;;9.60;;
77010;SDS011;65945;53.148;17.956;2023-11-22T11:58:55;21.70;;;10.90;;
77010;SDS011;65945;53.148;17.956;2023-11-22T12:01:27;17.50;;;9.10;;
77010;SDS011;65945;53.148;17.956;2023-11-22T12:03:55;27.80;;;11.80;;
77010;SDS011;65945;53.148;17.956;2023-11-22T12:06:22;24.40;;;11.00;;
77010;SDS011;65945;53.148;17.956;2023-11-22T12:08:49;20.20;;;9.70;;
77010;SDS011;65945;53.148;17.956;2023-11-22T12:11:15;17.70;;;8.90;;
77010;SDS011;65945;53.148;17.956;2023-11-22T12:13:44;26.50;;;10.50;;
77010;SDS011;65945;53.148;17.956;2023-11-22T12:16:15;19.70;;;10.40;;
77010;SDS011;65945;53.148;17.956;2023-11-22T12:18:44;22.90;;;10.20;;
77010;SDS011;65945;53.148;17.956;2023-11-22T12:21:12;22.50;;;9.60;;
77010;SDS011;65945;53.148;17.956;2023-11-22T12:23:42;22.20;;;11.00;;
77010;SDS011;65945;53.148;17.956;2023-11-22T12:26:14;23.60;;;10.80;;
77010;SDS011;65945;53.148;17.956;2023-11-22T12:28:42;24.00;;;11.10;;
77010;SDS011;65945;53.148;17.956;2023-11-22T12:31:12;20.40;;;9.10;;
77010;SDS011;65945;53.148;17.956;2023-11-22T12:33:41;22.30;;;9.30;;
77010;SDS011;65945;53.148;17.956;2023-11-22T12:36:09;17.80;;;8.10;;
77010;SDS011;65945;53.148;17.956;2023-11-22T12:38:43;17.80;;;9.00;;
77010;SDS011;65945;53.148;17.956;2023-11-22T12:41:10;19.00;;;9.20;;
77010;SDS011;65945;53.148;17.956;2023-11-22T12:43:36;20.10;;;9.40;;
77010;SDS011;65945;53.148;17.956;2023-11-22T12:46:05;16.10;;;8.50;;
77010;SDS011;65945;53.148;17.956;2023-11-22T12:48:33;24.50;;;9.70;;
77010;SDS011;65945;53.148;17.956;2023-11-22T12:51:00;16.40;;;8.30;;
77010;SDS011;65945;53.148;17.956;2023-11-22T12:53:27;22.30;;;9.40;;
77010;SDS011;65945;53.148;17.956;2023-11-22T12:55:57;26.90;;;9.80;;
77010;SDS011;65945;53.148;17.956;2023-11-22T12:58:24;22.20;;;9.50;;
77010;SDS011;65945;53.148;17.956;2023-11-22T13:00:52;19.10;;;9.70;;
77010;SDS011;65945;53.148;17.956;2023-11-22T13:03:27;21.20;;;10.40;;
77010;SDS011;65945;53.148;17.956;2023-11-22T13:05:55;17.70;;;8.80;;
77010;SDS011;65945;53.148;17.956;2023-11-22T13:08:22;30.50;;;12.10;;
77010;SDS011;65945;53.148;17.956;2023-11-22T13:10:51;35.70;;;15.90;;
77010;SDS011;65945;53.148;17.956;2023-11-22T13:13:20;28.20;;;12.20;;
77010;SDS011;65945;53.148;17.956;2023-11-22T13:15:48;22.70;;;10.50;;
77010;SDS011;65945;53.148;17.956;2023-11-22T13:18:18;28.60;;;13.40;;
77010;SDS011;65945;53.148;17.956;2023-11-22T13:20:46;22.10;;;10.20;;
77010;SDS011;65945;53.148;17.956;2023-11-22T13:23:12;24.90;;;9.90;;
77010;SDS011;65945;53.148;17.956;2023-11-22T13:25:40;20.40;;;9.20;;
77010;SDS011;65945;53.148;17.956;2023-11-22T13:28:10;21.40;;;9.40;;
77010;SDS011;65945;53.148;17.956;2023-11-22T13:30:37;20.30;;;8.90;;
77010;SDS011;65945;53.148;17.956;2023-11-22T13:33:04;15.40;;;8.50;;
77010;SDS011;65945;53.148;17.956;2023-11-22T13:35:32;17.10;;;8.90;;
77010;SDS011;65945;53.148;17.956;2023-11-22T13:38:03;20.40;;;9.00;;
77010;SDS011;65945;53.148;17.956;2023-11-22T13:40:37;18.40;;;9.00;;
77010;SDS011;65945;53.148;17.956;2023-11-22T13:43:06;21.80;;;8.70;;
77010;SDS011;65945;53.148;17.956;2023-11-22T13:45:36;18.90;;;10.30;;
77010;SDS011;65945;53.148;17.956;2023-11-22T13:48:06;20.40;;;9.30;;
77010;SDS011;65945;53.148;17.956;2023-11-22T13:50:35;21.20;;;10.10;;
77010;SDS011;65945;53.148;17.956;2023-11-22T13:53:02;17.10;;;8.90;;
77010;SDS011;65945;53.148;17.956;2023-11-22T13:55:30;22.60;;;11.10;;
77010;SDS011;65945;53.148;17.956;2023-11-22T13:57:58;19.00;;;8.80;;
77010;SDS011;65945;53.148;17.956;2023-11-22T14:00:27;20.90;;;9.50;;
77010;SDS011;65945;53.148;17.956;2023-11-22T14:03:00;25.30;;;11.20;;
77010;SDS011;65945;53.148;17.956;2023-11-22T14:05:34;26.20;;;11.50;;
77010;SDS011;65945;53.148;17.956;2023-11-22T14:08:03;29.30;;;12.90;;
77010;SDS011;65945;53.148;17.956;2023-11-22T14:10:33;32.50;;;14.60;;
77010;SDS011;65945;53.148;17.956;2023-11-22T14:13:00;26.60;;;12.40;;
77010;SDS011;65945;53.148;17.956;2023-11-22T14:15:28;33.50;;;13.80;;
77010;SDS011;65945;53.148;17.956;2023-11-22T14:17:55;31.90;;;14.50;;
77010;SDS011;65945;53.148;17.956;2023-11-22T14:20:21;30.60;;;13.00;;
77010;SDS011;65945;53.148;17.956;2023-11-22T14:22:48;31.30;;;14.70;;